createdAt,value
2022-08-26T00:01:55.662Z,19.15
2022-08-26T00:04:25.333Z,19.08
2022-08-26T00:06:53.920Z,19.07
2022-08-26T00:09:20.655Z,19.20
2022-08-26T00:11:47.492Z,19.18
2022-08-26T00:14:14.719Z,19.06
2022-08-26T00:16:47.952Z,18.96
2022-08-26T00:19:20.251Z,18.92
2022-08-26T00:21:48.620Z,18.96
2022-08-26T00:24:15.957Z,18.93
2022-08-26T00:26:42.488Z,18.82
2022-08-26T00:29:09.569Z,18.73
2022-08-26T00:31:37.484Z,18.67
2022-08-26T00:34:04.067Z,18.65
2022-08-26T00:36:32.431Z,18.69
2022-08-26T00:38:59.511Z,18.66
2022-08-26T00:41:26.539Z,18.57
2022-08-26T00:43:54.251Z,18.51
2022-08-26T00:46:25.323Z,18.44
2022-08-26T00:49:05.541Z,18.38
2022-08-26T00:51:47.314Z,18.37
2022-08-26T00:54:16.444Z,18.41
2022-08-26T00:56:52.918Z,18.37
2022-08-26T00:59:20.375Z,18.42
2022-08-26T01:01:47.111Z,18.35
2022-08-26T01:04:19.272Z,18.35
2022-08-26T01:06:48.578Z,18.35
2022-08-26T01:09:16.115Z,18.34
2022-08-26T01:11:42.814Z,18.30
2022-08-26T01:14:12.438Z,18.25
2022-08-26T01:16:39.611Z,18.24
2022-08-26T01:19:27.098Z,18.30
2022-08-26T01:22:02.453Z,18.34
2022-08-26T01:24:30.815Z,18.35
2022-08-26T01:27:05.132Z,18.28
2022-08-26T01:29:33.694Z,18.28
2022-08-26T01:32:00.687Z,18.31
2022-08-26T01:34:35.017Z,18.16
2022-08-26T01:37:05.431Z,18.12
2022-08-26T01:39:33.704Z,18.06
2022-08-26T01:42:03.135Z,18.05
2022-08-26T01:44:36.343Z,18.04
2022-08-26T01:47:05.136Z,18.01
2022-08-26T01:49:35.733Z,18.14
2022-08-26T01:52:04.836Z,18.34
2022-08-26T01:54:32.459Z,18.39
2022-08-26T01:57:00.357Z,18.38
2022-08-26T01:59:27.067Z,18.47
2022-08-26T02:01:53.844Z,18.39
2022-08-26T02:04:36.030Z,18.24
2022-08-26T02:07:06.481Z,18.10
2022-08-26T02:09:41.290Z,17.91
2022-08-26T02:12:09.370Z,17.97
2022-08-26T02:14:44.446Z,18.09
2022-08-26T02:17:11.883Z,18.00
2022-08-26T02:19:41.918Z,17.82
2022-08-26T02:22:14.989Z,17.81
2022-08-26T02:24:59.479Z,17.81
2022-08-26T02:27:31.997Z,17.75
2022-08-26T02:30:07.819Z,17.64
2022-08-26T02:32:34.376Z,17.56
2022-08-26T02:35:01.865Z,17.50
2022-08-26T02:37:31.231Z,17.50
2022-08-26T02:39:58.096Z,17.57
2022-08-26T02:42:24.741Z,17.60
2022-08-26T02:44:51.819Z,17.57
2022-08-26T02:47:18.387Z,17.52
2022-08-26T02:49:47.228Z,17.55
2022-08-26T02:52:14.831Z,17.41
2022-08-26T02:54:41.479Z,17.30
2022-08-26T02:57:08.135Z,17.33
2022-08-26T02:59:36.058Z,17.27
2022-08-26T03:02:03.235Z,17.18
2022-08-26T03:04:30.460Z,17.12
2022-08-26T03:07:00.019Z,17.10
2022-08-26T03:09:27.541Z,17.05
2022-08-26T03:11:55.522Z,17.00
2022-08-26T03:14:23.972Z,17.03
2022-08-26T03:16:54.470Z,17.01
2022-08-26T03:19:25.585Z,17.03
2022-08-26T03:21:53.734Z,17.14
2022-08-26T03:24:25.556Z,17.16
2022-08-26T03:26:52.875Z,17.10
2022-08-26T03:29:39.516Z,17.19
2022-08-26T03:32:06.270Z,17.19
2022-08-26T03:34:33.439Z,17.20
2022-08-26T03:37:00.310Z,17.14
2022-08-26T03:39:26.882Z,17.04
2022-08-26T03:41:54.258Z,16.98
2022-08-26T03:44:21.051Z,16.94
2022-08-26T03:46:47.641Z,16.88
2022-08-26T03:49:15.198Z,16.80
2022-08-26T03:51:42.145Z,16.79
2022-08-26T03:54:09.412Z,16.76
2022-08-26T03:56:37.186Z,16.76
2022-08-26T03:59:07.599Z,16.82
2022-08-26T04:01:34.995Z,16.86
2022-08-26T04:04:01.809Z,16.93
2022-08-26T04:06:33.448Z,16.94
2022-08-26T04:09:04.309Z,17.00
2022-08-26T04:11:34.034Z,17.07
2022-08-26T04:14:04.332Z,17.15
2022-08-26T04:16:31.446Z,17.24
2022-08-26T04:18:58.465Z,17.28
2022-08-26T04:21:25.880Z,17.36
2022-08-26T04:23:54.364Z,17.45
2022-08-26T04:26:22.551Z,17.52
2022-08-26T04:28:51.123Z,17.71
2022-08-26T04:31:18.909Z,17.80
2022-08-26T04:33:47.598Z,18.01
2022-08-26T04:36:17.459Z,18.32
2022-08-26T04:38:46.607Z,18.52
2022-08-26T04:41:15.082Z,18.60
2022-08-26T04:43:43.958Z,18.73
2022-08-26T04:46:12.818Z,19.05
2022-08-26T04:48:41.093Z,19.58
2022-08-26T04:51:09.701Z,20.05
2022-08-26T04:53:36.867Z,20.55
2022-08-26T04:56:04.409Z,20.99
2022-08-26T04:58:31.256Z,21.43
2022-08-26T05:00:58.501Z,21.60
2022-08-26T05:03:30.530Z,21.90
2022-08-26T05:05:58.907Z,21.77
2022-08-26T05:08:25.820Z,21.52
2022-08-26T05:10:56.263Z,21.50
2022-08-26T05:13:27.477Z,22.05
2022-08-26T05:15:54.720Z,22.31
2022-08-26T05:18:27.539Z,22.43
2022-08-26T05:20:55.040Z,22.60
2022-08-26T05:23:23.271Z,23.24
2022-08-26T05:25:54.639Z,23.91
2022-08-26T05:28:22.080Z,24.35
2022-08-26T05:30:50.190Z,24.92
2022-08-26T05:33:18.489Z,25.08
2022-08-26T05:35:45.860Z,25.20
2022-08-26T05:38:15.601Z,25.92
2022-08-26T05:40:44.785Z,26.22
2022-08-26T05:43:13.318Z,26.86
2022-08-26T05:45:45.844Z,26.82
2022-08-26T05:48:13.838Z,27.17
2022-08-26T05:50:43.852Z,27.42
2022-08-26T05:53:12.322Z,27.21
2022-08-26T05:55:44.395Z,26.91
2022-08-26T05:58:12.454Z,27.73
2022-08-26T06:00:40.567Z,27.98
2022-08-26T06:03:08.352Z,28.99
2022-08-26T06:05:41.946Z,29.98
2022-08-26T06:08:11.391Z,29.56
2022-08-26T06:10:55.585Z,30.07
2022-08-26T06:13:26.861Z,30.30
2022-08-26T06:15:54.617Z,31.16
2022-08-26T06:18:36.405Z,31.03
2022-08-26T06:21:31.452Z,30.55
2022-08-26T06:24:20.387Z,31.21
2022-08-26T06:27:01.474Z,29.81
2022-08-26T06:29:30.112Z,30.05
2022-08-26T06:31:57.973Z,29.78
2022-08-26T06:34:29.763Z,30.02
2022-08-26T06:36:59.757Z,29.99
2022-08-26T06:39:28.309Z,30.29
2022-08-26T06:41:57.641Z,29.70
2022-08-26T06:44:24.201Z,30.32
2022-08-26T06:46:51.376Z,30.73
2022-08-26T06:49:18.181Z,30.84
2022-08-26T06:51:52.705Z,30.03
2022-08-26T06:54:19.591Z,30.85
2022-08-26T06:56:46.407Z,31.74
2022-08-26T06:59:15.370Z,29.86
2022-08-26T07:01:44.826Z,29.79
2022-08-26T07:04:14.600Z,31.41
2022-08-26T07:06:47.068Z,32.52
2022-08-26T07:09:13.628Z,30.71
2022-08-26T07:11:41.746Z,30.73
2022-08-26T07:14:09.088Z,29.88
2022-08-26T07:16:35.965Z,29.60
2022-08-26T07:19:03.589Z,30.09
2022-08-26T07:21:40.372Z,31.99
2022-08-26T07:24:07.592Z,32.85
2022-08-26T07:26:34.529Z,33.61
2022-08-26T07:29:01.795Z,32.86
2022-08-26T07:31:39.273Z,32.38
2022-08-26T07:34:09.319Z,32.13
2022-08-26T07:36:36.631Z,34.10
2022-08-26T07:39:03.869Z,34.87
2022-08-26T07:43:56.821Z,34.87
2022-08-26T07:49:15.784Z,34.34
2022-08-26T07:51:42.393Z,33.02
2022-08-26T07:54:10.201Z,33.00
2022-08-26T07:56:39.486Z,33.62
2022-08-26T07:59:13.835Z,33.94
2022-08-26T08:01:45.173Z,33.91
2022-08-26T08:04:17.320Z,33.33
2022-08-26T08:06:45.048Z,33.40
2022-08-26T08:09:14.096Z,33.25
2022-08-26T08:11:43.535Z,32.08
2022-08-26T08:14:11.978Z,32.13
2022-08-26T08:16:41.519Z,33.08
2022-08-26T08:19:13.574Z,34.20
2022-08-26T08:21:41.909Z,33.21
2022-08-26T08:24:08.520Z,33.58
2022-08-26T08:26:35.501Z,32.88
2022-08-26T08:29:02.890Z,33.61
2022-08-26T08:31:56.069Z,34.93
2022-08-26T08:34:19.226Z,35.27
2022-08-26T08:36:48.123Z,35.09
2022-08-26T08:39:14.657Z,34.06
2022-08-26T08:42:07.449Z,34.74
2022-08-26T08:44:41.352Z,35.69
2022-08-26T08:47:33.995Z,35.76
2022-08-26T08:50:12.474Z,35.21
2022-08-26T08:52:43.036Z,34.95
2022-08-26T08:55:16.104Z,35.06
2022-08-26T08:58:02.571Z,35.72
2022-08-26T09:00:39.769Z,35.51
2022-08-26T09:03:31.738Z,35.33
2022-08-26T09:06:00.501Z,35.77
2022-08-26T09:08:35.238Z,35.03
2022-08-26T09:11:03.666Z,35.28
2022-08-26T09:13:31.702Z,35.16
2022-08-26T09:16:13.956Z,33.88
2022-08-26T09:18:47.711Z,33.99
2022-08-26T09:21:17.864Z,34.03
2022-08-26T09:23:49.175Z,34.19
2022-08-26T09:26:24.787Z,34.58
2022-08-26T09:28:57.467Z,33.92
2022-08-26T09:31:27.679Z,33.56
2022-08-26T09:34:17.866Z,33.88
2022-08-26T09:36:53.583Z,33.98
2022-08-26T09:39:37.801Z,35.07
2022-08-26T09:42:07.770Z,35.77
2022-08-26T09:44:52.128Z,35.41
2022-08-26T09:47:25.660Z,33.92
2022-08-26T09:50:09.920Z,34.05
2022-08-26T09:52:40.343Z,34.22
2022-08-26T09:55:22.006Z,34.81
2022-08-26T09:57:54.731Z,34.76
2022-08-26T10:00:44.035Z,35.58
2022-08-26T10:03:17.265Z,36.05
2022-08-26T10:05:58.437Z,34.91
2022-08-26T10:08:41.285Z,34.71
2022-08-26T10:11:24.503Z,35.25
2022-08-26T10:13:56.859Z,34.83
2022-08-26T10:16:30.284Z,35.10
2022-08-26T10:19:15.813Z,35.24
2022-08-26T10:22:06.014Z,34.92
2022-08-26T10:24:44.188Z,34.64
2022-08-26T10:27:36.442Z,34.38
2022-08-26T10:30:23.485Z,34.15
2022-08-26T10:33:26.309Z,33.77
2022-08-26T10:42:58.436Z,34.80
2022-08-26T10:45:31.907Z,35.00
2022-08-26T10:48:06.800Z,34.91
2022-08-26T10:50:38.129Z,34.65
2022-08-26T10:53:25.018Z,34.75
2022-08-26T10:56:15.901Z,35.17
2022-08-26T10:59:13.577Z,34.92
2022-08-26T11:01:52.581Z,34.48
2022-08-26T11:04:48.210Z,34.82
2022-08-26T11:07:35.314Z,34.59
2022-08-26T11:10:31.091Z,33.99
2022-08-26T11:13:03.550Z,33.64
2022-08-26T11:15:30.051Z,34.25
2022-08-26T11:18:03.314Z,34.31
2022-08-26T11:41:33.637Z,33.05
2022-08-26T11:44:02.007Z,33.44
2022-08-26T11:46:37.523Z,33.27
2022-08-26T11:49:07.321Z,33.57
2022-08-26T11:51:40.489Z,34.32
2022-08-26T11:54:14.797Z,34.13
2022-08-26T11:56:44.773Z,33.84
2022-08-26T11:59:15.553Z,33.40
2022-08-26T12:01:45.298Z,32.79
2022-08-26T12:04:28.730Z,32.31
2022-08-26T12:06:57.067Z,32.46
2022-08-26T12:09:27.156Z,31.90
2022-08-26T12:12:27.067Z,31.42
2022-08-26T12:15:14.155Z,31.19
2022-08-26T12:17:42.061Z,31.07
2022-08-26T12:20:30.372Z,31.15
2022-08-26T12:23:00.093Z,31.18
2022-08-26T12:25:28.088Z,31.00
2022-08-26T12:28:05.511Z,30.73
2022-08-26T12:30:32.096Z,30.55
2022-08-26T12:33:21.933Z,30.49
2022-08-26T12:35:51.474Z,30.51
2022-08-26T12:38:21.600Z,30.65
2022-08-26T12:40:50.373Z,30.74
2022-08-26T12:43:43.579Z,30.50
2022-08-26T12:46:13.749Z,30.61
2022-08-26T12:48:44.779Z,30.81
2022-08-26T12:51:25.677Z,30.86
2022-08-26T12:53:53.384Z,30.73
2022-08-26T12:56:29.932Z,30.70
2022-08-26T12:59:11.173Z,30.57
2022-08-26T13:01:43.240Z,30.65
2022-08-26T13:04:37.967Z,30.79
2022-08-26T13:07:22.386Z,31.13
2022-08-26T13:09:54.477Z,31.05
2022-08-26T13:12:27.592Z,31.11
2022-08-26T13:14:54.803Z,31.16
2022-08-26T13:17:21.533Z,31.11
2022-08-26T13:19:49.266Z,31.07
2022-08-26T13:22:22.542Z,31.20
2022-08-26T13:24:49.119Z,31.33
2022-08-26T13:27:16.224Z,31.33
2022-08-26T13:29:43.509Z,31.27
2022-08-26T13:32:10.903Z,31.08
2022-08-26T13:34:38.130Z,31.06
2022-08-26T13:37:05.250Z,31.26
2022-08-26T13:39:32.244Z,31.22
2022-08-26T13:41:58.906Z,31.08
2022-08-26T13:44:25.886Z,31.16
2022-08-26T13:46:52.588Z,31.06
2022-08-26T13:49:19.180Z,30.83
2022-08-26T13:51:45.754Z,31.08
2022-08-26T13:54:12.341Z,31.24
2022-08-26T13:56:39.205Z,31.29
2022-08-26T13:59:06.676Z,31.50
2022-08-26T14:01:34.718Z,31.65
2022-08-26T14:04:03.121Z,31.77
2022-08-26T14:06:30.416Z,31.78
2022-08-26T14:08:57.537Z,31.51
2022-08-26T14:11:25.110Z,31.48
2022-08-26T14:13:51.934Z,31.38
2022-08-26T14:16:25.667Z,31.44
2022-08-26T14:18:53.100Z,31.35
2022-08-26T14:21:19.835Z,31.37
2022-08-26T14:23:46.673Z,31.44
2022-08-26T14:26:23.098Z,31.46
2022-08-26T14:28:59.818Z,30.82
2022-08-26T14:31:29.360Z,30.63
2022-08-26T14:34:02.615Z,30.66
2022-08-26T14:36:29.490Z,30.71
2022-08-26T14:38:58.456Z,30.86
2022-08-26T14:41:25.543Z,30.99
2022-08-26T14:44:00.273Z,30.99
2022-08-26T14:46:30.334Z,31.08
2022-08-26T14:49:01.837Z,31.25
2022-08-26T14:51:29.778Z,31.21
2022-08-26T14:54:15.321Z,31.31
2022-08-26T14:56:48.637Z,31.01
2022-08-26T14:59:21.507Z,30.86
2022-08-26T15:01:49.639Z,30.58
2022-08-26T15:04:16.613Z,30.55
2022-08-26T15:09:37.621Z,30.52
2022-08-26T15:12:05.902Z,30.49
2022-08-26T15:14:33.361Z,30.43
2022-08-26T15:17:00.838Z,30.43
2022-08-26T15:19:27.713Z,30.42
2022-08-26T15:21:54.524Z,30.39
2022-08-26T15:24:23.203Z,30.32
2022-08-26T15:26:50.462Z,30.30
2022-08-26T15:29:17.510Z,30.38
2022-08-26T15:31:44.345Z,30.19
2022-08-26T15:34:16.412Z,30.18
2022-08-26T15:36:44.964Z,30.19
2022-08-26T15:39:12.245Z,30.19
2022-08-26T15:41:39.533Z,29.99
2022-08-26T15:44:07.854Z,29.96
2022-08-26T15:46:35.714Z,29.68
2022-08-26T15:49:04.294Z,29.58
2022-08-26T15:51:34.212Z,29.51
2022-08-26T15:54:02.936Z,29.50
2022-08-26T15:56:34.720Z,29.53
2022-08-26T15:59:02.491Z,29.63
2022-08-26T16:01:32.066Z,29.65
2022-08-26T16:03:59.796Z,29.45
2022-08-26T16:06:30.773Z,29.38
2022-08-26T16:08:58.060Z,29.24
2022-08-26T16:11:26.190Z,29.15
2022-08-26T16:13:52.783Z,29.10
2022-08-26T16:16:19.622Z,29.06
2022-08-26T16:18:48.519Z,28.95
2022-08-26T16:21:19.424Z,28.99
2022-08-26T16:23:46.368Z,28.88
2022-08-26T16:26:16.373Z,28.90
2022-08-26T16:28:43.800Z,28.78
2022-08-26T16:31:10.931Z,28.78
2022-08-26T16:33:37.966Z,28.54
2022-08-26T16:36:05.568Z,28.50
2022-08-26T16:38:32.402Z,28.28
2022-08-26T16:41:01.407Z,28.16
2022-08-26T16:43:28.736Z,28.10
2022-08-26T16:45:56.184Z,28.04
2022-08-26T16:48:23.662Z,28.00
2022-08-26T16:50:51.230Z,27.98
2022-08-26T16:53:19.129Z,27.89
2022-08-26T16:55:47.623Z,27.78
2022-08-26T16:58:15.094Z,27.72
2022-08-26T17:00:41.845Z,27.65
2022-08-26T17:03:08.797Z,27.58
2022-08-26T17:05:36.377Z,27.44
2022-08-26T17:08:04.193Z,27.37
2022-08-26T17:10:32.297Z,27.17
2022-08-26T17:12:59.185Z,27.03
2022-08-26T17:15:26.083Z,26.91
2022-08-26T17:17:53.932Z,26.78
2022-08-26T17:20:22.464Z,26.62
2022-08-26T17:22:51.063Z,26.51
2022-08-26T17:25:24.603Z,26.44
2022-08-26T17:27:51.480Z,26.31
2022-08-26T17:30:18.876Z,26.22
2022-08-26T17:32:46.307Z,26.11
2022-08-26T17:35:14.249Z,26.06
2022-08-26T17:37:41.690Z,25.98
2022-08-26T17:40:15.404Z,25.93
2022-08-26T17:42:42.511Z,25.72
2022-08-26T17:45:10.260Z,25.60
2022-08-26T17:47:37.474Z,25.44
2022-08-26T17:50:05.901Z,25.35
2022-08-26T17:52:32.820Z,25.26
2022-08-26T17:54:59.427Z,25.17
2022-08-26T17:57:26.126Z,25.10
2022-08-26T17:59:53.549Z,25.01
2022-08-26T18:02:21.157Z,24.92
2022-08-26T18:04:48.488Z,24.85
2022-08-26T18:07:16.187Z,24.83
2022-08-26T18:09:43.188Z,24.77
2022-08-26T18:12:09.937Z,24.76
2022-08-26T18:14:36.813Z,24.69
2022-08-26T18:17:04.346Z,24.63
2022-08-26T18:19:31.464Z,24.57
2022-08-26T18:21:58.400Z,24.48
2022-08-26T18:24:30.308Z,24.43
2022-08-26T18:26:57.032Z,24.33
2022-08-26T18:29:25.662Z,24.19
2022-08-26T18:31:52.484Z,24.09
2022-08-26T18:34:19.477Z,23.98
2022-08-26T18:36:46.771Z,23.86
2022-08-26T18:39:15.006Z,23.78
2022-08-26T18:41:49.017Z,23.69
2022-08-26T18:44:18.184Z,23.71
2022-08-26T18:46:46.433Z,23.65
2022-08-26T18:49:15.106Z,23.57
2022-08-26T18:51:42.868Z,23.49
2022-08-26T18:54:10.419Z,23.40
2022-08-26T18:56:39.276Z,23.32
2022-08-26T18:59:07.629Z,23.32
2022-08-26T19:01:35.288Z,23.27
2022-08-26T19:04:03.519Z,23.27
2022-08-26T19:06:32.884Z,23.19
2022-08-26T19:08:59.980Z,23.12
2022-08-26T19:11:31.566Z,23.07
2022-08-26T19:14:00.744Z,22.99
2022-08-26T19:16:28.237Z,22.89
2022-08-26T19:18:56.063Z,22.79
2022-08-26T19:21:23.490Z,22.73
2022-08-26T19:23:50.708Z,22.65
2022-08-26T19:26:17.642Z,22.54
2022-08-26T19:28:44.197Z,22.46
2022-08-26T19:31:12.060Z,22.38
2022-08-26T19:33:42.906Z,22.28
2022-08-26T19:36:15.019Z,22.20
2022-08-26T19:38:42.795Z,22.12
2022-08-26T19:41:13.814Z,22.11
2022-08-26T19:43:40.699Z,22.04
2022-08-26T19:46:16.165Z,21.96
2022-08-26T19:48:46.661Z,21.86
2022-08-26T19:51:27.126Z,21.73
2022-08-26T19:53:55.640Z,21.62
2022-08-26T19:56:23.066Z,21.56
2022-08-26T19:58:50.484Z,21.49
2022-08-26T20:01:18.173Z,21.46
2022-08-26T20:03:45.748Z,21.39
2022-08-26T20:06:14.417Z,21.38
2022-08-26T20:08:42.355Z,21.37
2022-08-26T20:11:14.538Z,21.29
2022-08-26T20:13:42.134Z,21.19
2022-08-26T20:16:10.435Z,21.14
2022-08-26T20:18:55.464Z,21.00
2022-08-26T20:21:28.482Z,20.89
2022-08-26T20:24:01.169Z,20.77
2022-08-26T20:26:29.507Z,20.63
2022-08-26T20:28:57.916Z,20.58
2022-08-26T20:31:25.904Z,20.65
2022-08-26T20:33:53.625Z,20.74
2022-08-26T20:36:22.704Z,20.73
2022-08-26T20:38:50.215Z,20.68
2022-08-26T20:41:17.380Z,20.63
2022-08-26T20:43:45.289Z,20.52
2022-08-26T20:46:18.128Z,20.49
2022-08-26T20:48:46.648Z,20.53
2022-08-26T20:51:15.749Z,20.54
2022-08-26T20:53:42.637Z,20.44
2022-08-26T20:56:10.818Z,20.41
2022-08-26T20:58:38.183Z,20.33
2022-08-26T21:01:07.968Z,20.23
2022-08-26T21:03:36.173Z,20.09
2022-08-26T21:06:03.873Z,20.08
2022-08-26T21:08:33.198Z,20.05
2022-08-26T21:11:00.800Z,19.98
2022-08-26T21:13:35.784Z,19.91
2022-08-26T21:16:10.188Z,19.80
2022-08-26T21:18:37.089Z,19.71
2022-08-26T21:21:08.384Z,19.62
2022-08-26T21:23:36.215Z,19.57
2022-08-26T21:26:08.666Z,19.65
2022-08-26T21:28:36.783Z,19.65
2022-08-26T21:31:05.259Z,19.59
2022-08-26T21:33:32.348Z,19.57
2022-08-26T21:35:59.694Z,19.56
2022-08-26T21:38:26.689Z,19.47
2022-08-26T21:40:59.560Z,19.38
2022-08-26T21:43:35.062Z,19.27
2022-08-26T21:46:07.968Z,19.15
2022-08-26T21:48:35.964Z,19.05
2022-08-26T21:51:04.969Z,19.03
2022-08-26T21:53:31.944Z,19.03
2022-08-26T21:55:58.699Z,19.01
2022-08-26T21:58:25.332Z,18.96
2022-08-26T22:00:52.039Z,18.97
2022-08-26T22:03:18.888Z,18.97
2022-08-26T22:05:51.397Z,18.91
2022-08-26T22:08:23.036Z,18.84
2022-08-26T22:10:55.148Z,18.86
2022-08-26T22:13:29.685Z,18.72
2022-08-26T22:15:57.962Z,18.79
2022-08-26T22:18:26.848Z,18.86
2022-08-26T22:20:55.582Z,18.77
2022-08-26T22:23:22.996Z,18.67
2022-08-26T22:25:50.655Z,18.63
2022-08-26T22:28:18.076Z,18.60
2022-08-26T22:30:46.650Z,18.48
2022-08-26T22:33:14.248Z,18.37
2022-08-26T22:35:44.988Z,18.23
2022-08-26T22:38:11.959Z,18.14
2022-08-26T22:40:44.575Z,18.07
2022-08-26T22:43:12.918Z,18.03
2022-08-26T22:45:45.774Z,17.99
2022-08-26T22:48:15.632Z,17.93
2022-08-26T22:50:44.226Z,17.93
2022-08-26T22:53:10.891Z,17.94
2022-08-26T22:55:38.054Z,17.98
2022-08-26T22:58:06.041Z,17.87
2022-08-26T23:00:33.236Z,17.77
2022-08-26T23:03:01.008Z,17.74
2022-08-26T23:05:27.738Z,17.68
2022-08-26T23:07:56.299Z,17.63
2022-08-26T23:10:26.527Z,17.61
2022-08-26T23:12:53.707Z,17.58
2022-08-26T23:15:21.314Z,17.67
2022-08-26T23:17:57.043Z,17.73
2022-08-26T23:20:28.153Z,17.69
2022-08-26T23:22:55.545Z,17.65
2022-08-26T23:25:23.282Z,17.78
2022-08-26T23:27:52.057Z,17.76
2022-08-26T23:30:22.520Z,17.73
2022-08-26T23:32:50.100Z,17.75
2022-08-26T23:35:19.916Z,17.79
2022-08-26T23:37:48.958Z,17.79
2022-08-26T23:40:20.924Z,17.77
2022-08-26T23:42:47.941Z,17.71
2022-08-26T23:45:18.402Z,17.67
2022-08-26T23:47:45.655Z,17.60
2022-08-26T23:50:13.146Z,17.50
2022-08-26T23:52:58.323Z,17.46
2022-08-26T23:55:25.368Z,17.44
2022-08-26T23:57:52.169Z,17.39
